Time;durP1;ratioP1;P1;durP2;ratioP2;P2;SDS_P1;SDS_P2;PMS_P1;PMS_P2;Temp;Humidity;BMP_temperature;BMP_pressure;BME280_temperature;BME280_humidity;BME280_pressure;Samples;Min_cycle;Max_cycle;Signal;HPM_P1;HPM_P2
2021/10/05 00:01:55;;;;;;;2.07;0.80;;;14.10;99.90;;;;;;5071484;28;20279;-77
2021/10/05 00:04:21;;;;;;;3.30;0.90;;;14.10;99.90;;;;;;5073088;28;20195;-77
2021/10/05 00:06:46;;;;;;;1.67;0.97;;;14.10;99.90;;;;;;5072913;28;20191;-77
2021/10/05 00:09:12;;;;;;;1.67;1.10;;;14.10;99.90;;;;;;5071532;28;20805;-78
2021/10/05 00:11:38;;;;;;;1.80;1.03;;;14.10;99.90;;;;;;5076975;28;20243;-77
2021/10/05 00:14:04;;;;;;;3.03;1.10;;;14.10;99.90;;;;;;5071250;28;20602;-77
2021/10/05 00:16:29;;;;;;;1.40;0.90;;;14.10;99.90;;;;;;5072107;28;20221;-78
2021/10/05 00:18:55;;;;;;;1.60;1.20;;;14.10;99.90;;;;;;5072490;28;20553;-78
2021/10/05 00:21:21;;;;;;;2.00;1.10;;;14.10;99.90;;;;;;5072246;28;20172;-78
2021/10/05 00:23:47;;;;;;;1.83;1.00;;;14.00;99.90;;;;;;5072366;28;20165;-78
2021/10/05 00:26:13;;;;;;;2.33;0.93;;;14.00;99.90;;;;;;5072615;28;20183;-78
2021/10/05 00:28:40;;;;;;;2.15;1.13;;;14.00;99.90;;;;;;5071222;28;20291;-78
2021/10/05 00:31:06;;;;;;;2.50;1.00;;;14.00;99.90;;;;;;5071889;28;20255;-77
2021/10/05 00:33:31;;;;;;;2.70;1.00;;;14.00;99.90;;;;;;5072425;28;20593;-77
2021/10/05 00:35:57;;;;;;;3.67;1.40;;;14.00;99.90;;;;;;5072198;28;20563;-78
2021/10/05 00:38:23;;;;;;;2.10;1.20;;;14.00;99.90;;;;;;5072372;28;20192;-78
2021/10/05 00:40:48;;;;;;;1.93;1.17;;;14.00;99.90;;;;;;5071859;28;20175;-78
2021/10/05 00:43:14;;;;;;;1.87;0.90;;;13.90;99.90;;;;;;5071087;28;20776;-77
2021/10/05 00:45:40;;;;;;;1.63;0.93;;;14.00;99.90;;;;;;5072207;28;20164;-78
2021/10/05 00:48:06;;;;;;;2.57;1.07;;;14.00;99.90;;;;;;5076855;28;20250;-78
2021/10/05 00:50:33;;;;;;;1.90;1.40;;;13.90;99.90;;;;;;5071437;28;20642;-78
2021/10/05 00:52:59;;;;;;;2.72;0.90;;;14.00;99.90;;;;;;5070928;28;20184;-78
2021/10/05 00:55:25;;;;;;;1.50;1.00;;;14.00;99.90;;;;;;5072086;28;20199;-78
2021/10/05 00:57:52;;;;;;;1.67;1.20;;;14.00;99.90;;;;;;5071716;28;20195;-78
2021/10/05 01:00:19;;;;;;;1.45;0.95;;;13.90;99.90;;;;;;5071580;28;20183;-78
2021/10/05 01:02:45;;;;;;;1.95;1.08;;;13.90;99.90;;;;;;5072063;28;20617;-78
2021/10/05 01:05:12;;;;;;;1.60;1.17;;;13.90;99.90;;;;;;5071712;28;20558;-78
2021/10/05 01:07:38;;;;;;;6.55;2.15;;;13.90;99.90;;;;;;5071509;28;20184;-78
2021/10/05 01:10:05;;;;;;;1.80;0.90;;;13.80;99.90;;;;;;5071448;28;20200;-78
2021/10/05 01:12:31;;;;;;;3.20;1.43;;;13.90;99.90;;;;;;5071645;28;20510;-78
2021/10/05 01:14:57;;;;;;;1.75;1.00;;;13.80;99.90;;;;;;5071677;28;21106;-77
2021/10/05 01:17:23;;;;;;;2.63;1.00;;;13.90;99.90;;;;;;5053723;28;20334;-78
2021/10/05 01:19:48;;;;;;;2.87;1.20;;;13.80;99.90;;;;;;5070169;28;20208;-77
2021/10/05 01:22:14;;;;;;;2.20;1.90;;;13.80;99.90;;;;;;5071913;28;20176;-77
2021/10/05 01:24:40;;;;;;;1.90;0.83;;;13.80;99.90;;;;;;5076807;28;20176;-77
2021/10/05 01:27:06;;;;;;;2.35;0.98;;;13.90;99.90;;;;;;5071578;28;20590;-77
2021/10/05 01:29:33;;;;;;;1.57;0.90;;;13.80;99.90;;;;;;5070259;28;20204;-77
2021/10/05 01:32:02;;;;;;;1.83;0.90;;;13.80;99.90;;;;;;5071451;28;20203;-77
2021/10/05 01:34:28;;;;;;;2.58;1.30;;;13.80;99.90;;;;;;5071249;28;20581;-77
2021/10/05 01:36:58;;;;;;;2.28;1.10;;;13.80;99.90;;;;;;5071597;28;20638;-77
2021/10/05 01:39:33;;;;;;;2.20;1.05;;;13.80;99.90;;;;;;5071437;28;20250;-77
2021/10/05 01:42:02;;;;;;;1.60;1.00;;;13.80;99.90;;;;;;5071077;28;20229;-77
2021/10/05 01:44:28;;;;;;;2.42;1.00;;;13.80;99.90;;;;;;5071404;28;20555;-77
2021/10/05 01:46:54;;;;;;;2.55;1.10;;;13.80;99.90;;;;;;5071258;28;20199;-77
2021/10/05 01:49:21;;;;;;;2.43;1.30;;;13.80;99.90;;;;;;5071285;28;20188;-77
2021/10/05 01:51:47;;;;;;;1.60;0.95;;;13.80;99.90;;;;;;5070804;28;20204;-77
2021/10/05 01:54:14;;;;;;;2.58;0.95;;;13.80;99.90;;;;;;5070098;28;20172;-77
2021/10/05 01:56:41;;;;;;;1.67;1.00;;;13.70;99.90;;;;;;5069821;28;20276;-77
2021/10/05 01:59:07;;;;;;;1.50;1.00;;;13.70;99.90;;;;;;5071507;28;20558;-77
2021/10/05 02:01:32;;;;;;;2.50;1.00;;;13.70;99.90;;;;;;5074026;28;20186;-78
2021/10/05 02:03:58;;;;;;;1.87;1.03;;;13.70;99.90;;;;;;5072022;28;20578;-77
2021/10/05 02:06:24;;;;;;;2.23;1.00;;;13.70;99.90;;;;;;5069578;28;20160;-77
2021/10/05 02:08:50;;;;;;;1.45;0.95;;;13.70;99.90;;;;;;5071066;28;20192;-77
2021/10/05 02:11:16;;;;;;;1.50;0.80;;;13.70;99.90;;;;;;5070839;28;20179;-77
2021/10/05 02:13:42;;;;;;;1.63;0.80;;;13.70;99.90;;;;;;5070976;28;20559;-77
2021/10/05 02:16:08;;;;;;;1.50;1.00;;;13.70;99.90;;;;;;5071144;28;20180;-77
2021/10/05 02:18:34;;;;;;;2.20;1.00;;;13.60;99.90;;;;;;5070942;28;20200;-78
2021/10/05 02:21:00;;;;;;;1.67;1.10;;;13.60;99.90;;;;;;5070684;28;20525;-78
2021/10/05 02:26:32;;;;;;;1.30;0.90;;;13.60;99.90;;;;;;5008851;28;20241;-77
2021/10/05 02:28:58;;;;;;;3.28;0.70;;;13.60;99.90;;;;;;5008873;28;20245;-77
2021/10/05 02:31:24;;;;;;;1.30;0.77;;;13.70;99.90;;;;;;5038022;28;20185;-77
2021/10/05 02:33:49;;;;;;;1.87;1.03;;;13.70;99.90;;;;;;5070842;28;20571;-76
2021/10/05 02:36:15;;;;;;;1.70;1.00;;;13.70;99.90;;;;;;5070879;28;20574;-77
2021/10/05 02:38:41;;;;;;;1.43;0.80;;;13.60;99.90;;;;;;5077553;28;20228;-77
2021/10/05 02:41:06;;;;;;;1.83;0.73;;;13.60;99.90;;;;;;5074365;28;20180;-77
2021/10/05 02:43:32;;;;;;;1.40;0.80;;;13.70;99.90;;;;;;5074337;28;20241;-78
2021/10/05 02:45:58;;;;;;;1.87;0.70;;;13.70;99.90;;;;;;5073043;28;20566;-77
2021/10/05 02:48:24;;;;;;;2.20;1.20;;;13.70;99.90;;;;;;5074126;28;20564;-77
2021/10/05 02:50:49;;;;;;;1.50;0.70;;;13.70;99.90;;;;;;5072440;28;20168;-77
2021/10/05 02:53:15;;;;;;;3.57;0.90;;;13.70;99.90;;;;;;5074215;28;20568;-77
2021/10/05 02:55:41;;;;;;;1.60;0.80;;;13.70;99.90;;;;;;5074054;28;20177;-77
2021/10/05 02:58:08;;;;;;;1.63;0.83;;;13.70;99.90;;;;;;5074331;28;20547;-76
2021/10/05 03:00:34;;;;;;;1.90;0.90;;;13.70;99.90;;;;;;5073748;28;20172;-76
2021/10/05 03:02:59;;;;;;;1.85;0.90;;;13.70;99.90;;;;;;5072858;28;20175;-76
2021/10/05 03:05:25;;;;;;;3.07;0.90;;;13.70;99.90;;;;;;5074152;28;20180;-76
2021/10/05 03:07:51;;;;;;;1.30;0.77;;;13.70;99.90;;;;;;5073650;28;20188;-76
2021/10/05 03:10:17;;;;;;;1.40;0.70;;;13.70;99.90;;;;;;5073650;28;20254;-76
2021/10/05 03:12:43;;;;;;;1.47;0.80;;;13.70;99.90;;;;;;5073840;28;20168;-76
2021/10/05 03:15:09;;;;;;;1.87;0.70;;;13.80;99.90;;;;;;5074671;28;20573;-76
2021/10/05 03:17:34;;;;;;;1.20;0.70;;;13.70;99.90;;;;;;5078239;28;20938;-76
2021/10/05 03:20:00;;;;;;;1.30;0.70;;;13.70;99.90;;;;;;5073478;28;20168;-76
2021/10/05 03:22:26;;;;;;;1.33;0.77;;;13.70;99.90;;;;;;5073605;28;20582;-76
2021/10/05 03:24:52;;;;;;;3.30;0.90;;;13.80;99.90;;;;;;5073756;28;20531;-76
2021/10/05 03:27:18;;;;;;;1.50;0.80;;;13.70;99.90;;;;;;5073498;28;20199;-76
2021/10/05 03:29:43;;;;;;;1.50;0.90;;;13.70;99.90;;;;;;5072306;28;20193;-76
2021/10/05 03:32:09;;;;;;;2.57;0.80;;;13.70;99.90;;;;;;5073211;28;20164;-76
2021/10/05 03:34:35;;;;;;;2.23;0.87;;;13.70;99.90;;;;;;5073177;28;20160;-76
2021/10/05 03:37:01;;;;;;;1.20;0.73;;;13.80;99.90;;;;;;5073363;28;20180;-76
2021/10/05 03:39:26;;;;;;;1.40;0.80;;;13.80;99.90;;;;;;5073273;28;20976;-76
2021/10/05 03:41:52;;;;;;;1.40;0.90;;;13.70;99.90;;;;;;5071618;28;20175;-76
2021/10/05 03:44:18;;;;;;;1.93;0.77;;;13.70;99.90;;;;;;5072886;28;20192;-76
2021/10/05 03:46:44;;;;;;;2.60;0.93;;;13.80;99.90;;;;;;5073207;28;20188;-76
2021/10/05 03:49:09;;;;;;;1.50;0.80;;;13.80;99.90;;;;;;5072317;28;20973;-76
2021/10/05 03:51:35;;;;;;;1.60;0.87;;;13.80;99.90;;;;;;5072208;28;20164;-76
2021/10/05 03:54:01;;;;;;;1.40;0.88;;;13.80;99.90;;;;;;5077714;28;20229;-76
2021/10/05 03:56:26;;;;;;;1.50;0.80;;;13.80;99.90;;;;;;5072796;28;20169;-76
2021/10/05 03:58:52;;;;;;;1.50;1.00;;;13.70;99.90;;;;;;5072117;28;20519;-76
2021/10/05 04:01:18;;;;;;;1.90;0.80;;;13.80;99.90;;;;;;5072330;28;20497;-76
2021/10/05 04:03:44;;;;;;;6.47;2.37;;;13.70;99.90;;;;;;5073022;28;20590;-76
2021/10/05 04:06:10;;;;;;;1.50;0.90;;;13.70;99.90;;;;;;5072735;28;20180;-76
2021/10/05 04:08:36;;;;;;;1.55;0.90;;;13.70;99.90;;;;;;5072555;28;20281;-76
2021/10/05 04:11:03;;;;;;;1.30;0.90;;;13.70;99.90;;;;;;5071090;28;20267;-76
2021/10/05 04:13:29;;;;;;;3.35;1.05;;;13.60;99.90;;;;;;5071512;28;20566;-76
2021/10/05 04:15:55;;;;;;;1.63;1.00;;;13.70;99.90;;;;;;5072542;28;20630;-76
2021/10/05 04:18:21;;;;;;;1.37;0.80;;;13.70;99.90;;;;;;5072457;28;20238;-76
2021/10/05 04:20:47;;;;;;;3.23;1.33;;;13.60;99.90;;;;;;5071077;28;20656;-76
2021/10/05 04:23:12;;;;;;;1.50;1.10;;;13.60;99.90;;;;;;5072332;28;20177;-76
2021/10/05 04:25:38;;;;;;;2.60;1.53;;;13.60;99.90;;;;;;5072629;28;20559;-76
2021/10/05 04:28:04;;;;;;;1.50;1.20;;;13.60;99.90;;;;;;5071017;28;20263;-77
2021/10/05 04:30:30;;;;;;;1.90;1.40;;;13.60;99.90;;;;;;5077685;28;20938;-76
2021/10/05 04:32:56;;;;;;;1.80;1.10;;;13.50;99.90;;;;;;5072591;28;20171;-77
2021/10/05 04:35:22;;;;;;;2.47;1.40;;;13.50;99.90;;;;;;5071197;28;20598;-76
2021/10/05 04:37:48;;;;;;;1.80;1.40;;;13.50;99.90;;;;;;5072281;28;20275;-76
2021/10/05 04:40:13;;;;;;;2.97;1.67;;;13.50;99.90;;;;;;5070830;28;20180;-77
2021/10/05 04:42:40;;;;;;;1.90;1.27;;;13.60;99.90;;;;;;5072252;28;20566;-76
2021/10/05 04:45:07;;;;;;;2.00;1.50;;;13.50;99.90;;;;;;5072463;28;20579;-76
2021/10/05 04:47:32;;;;;;;1.90;1.10;;;13.50;99.90;;;;;;5071986;28;20180;-77
2021/10/05 04:49:58;;;;;;;2.03;1.60;;;13.50;99.90;;;;;;5071975;28;20740;-77
2021/10/05 04:52:24;;;;;;;2.00;1.77;;;13.60;99.90;;;;;;5072174;28;20161;-77
2021/10/05 04:54:49;;;;;;;1.70;1.33;;;13.50;99.90;;;;;;5072256;28;20157;-78
2021/10/05 04:57:15;;;;;;;1.97;1.37;;;13.50;99.90;;;;;;5071120;28;20191;-77
2021/10/05 04:59:41;;;;;;;2.10;1.37;;;13.50;99.90;;;;;;5071808;28;20524;-77
2021/10/05 05:02:06;;;;;;;1.80;1.33;;;13.50;99.90;;;;;;5071259;28;20617;-77
2021/10/05 05:04:32;;;;;;;2.23;1.60;;;13.40;99.90;;;;;;5070535;28;20229;-77
2021/10/05 05:06:58;;;;;;;3.53;1.60;;;13.40;99.90;;;;;;5077143;28;20215;-77
2021/10/05 05:09:24;;;;;;;2.00;1.50;;;13.50;99.90;;;;;;5072076;28;20207;-77
2021/10/05 05:11:49;;;;;;;1.93;1.60;;;13.50;99.90;;;;;;5071484;28;20175;-77
2021/10/05 05:14:17;;;;;;;1.80;1.20;;;13.50;99.90;;;;;;5071558;28;20168;-77
2021/10/05 05:16:43;;;;;;;2.30;1.30;;;13.50;99.90;;;;;;5071786;28;20646;-77
2021/10/05 05:19:09;;;;;;;1.80;1.70;;;13.50;99.90;;;;;;5072204;28;20292;-76
2021/10/05 05:21:35;;;;;;;5.53;1.53;;;13.50;99.90;;;;;;5071467;28;20529;-76
2021/10/05 05:24:01;;;;;;;2.50;1.40;;;13.60;99.90;;;;;;5070335;28;20212;-77
2021/10/05 05:26:27;;;;;;;2.70;1.80;;;13.60;99.90;;;;;;5053621;28;20566;-76
2021/10/05 05:28:54;;;;;;;2.83;1.70;;;13.60;99.90;;;;;;5070005;28;20277;-76
2021/10/05 05:31:21;;;;;;;2.72;1.45;;;13.60;99.90;;;;;;5059428;28;20911;-78
2021/10/05 05:33:48;;;;;;;2.92;1.30;;;13.60;99.90;;;;;;5050144;28;20197;-78
2021/10/05 05:36:13;;;;;;;3.15;1.80;;;13.60;99.90;;;;;;5049820;28;20180;-77
2021/10/05 05:38:39;;;;;;;4.33;1.50;;;13.60;99.90;;;;;;5049637;28;20633;-77
2021/10/05 05:41:05;;;;;;;6.60;2.00;;;13.60;99.90;;;;;;5051033;28;20204;-77
2021/10/05 05:43:31;;;;;;;3.80;2.03;;;13.60;99.90;;;;;;5052312;28;20605;-78
2021/10/05 05:45:57;;;;;;;4.53;1.53;;;13.60;99.90;;;;;;5053589;28;20621;-77
2021/10/05 05:48:23;;;;;;;4.75;2.20;;;13.60;99.90;;;;;;5050993;28;20556;-77
2021/10/05 05:50:49;;;;;;;3.37;1.60;;;13.60;99.90;;;;;;5055232;28;20175;-79
2021/10/05 05:53:15;;;;;;;2.53;1.70;;;13.60;99.90;;;;;;5053827;28;20619;-77
2021/10/05 05:55:41;;;;;;;3.97;2.03;;;13.60;99.90;;;;;;5071999;28;20523;-76
2021/10/05 05:58:11;;;;;;;3.30;2.03;;;13.60;99.90;;;;;;5066212;28;20635;-76
2021/10/05 06:00:37;;;;;;;3.08;1.73;;;13.60;99.90;;;;;;5030902;28;20182;-76
2021/10/05 06:03:03;;;;;;;3.40;2.03;;;13.60;99.90;;;;;;5030842;28;20170;-77
2021/10/05 06:05:28;;;;;;;2.77;2.10;;;13.60;99.90;;;;;;5031863;28;20573;-76
2021/10/05 06:07:54;;;;;;;3.30;2.37;;;13.60;99.90;;;;;;5030920;28;20549;-76
2021/10/05 06:10:20;;;;;;;3.70;2.67;;;13.60;99.90;;;;;;5030683;28;20284;-76
2021/10/05 06:12:46;;;;;;;5.90;4.10;;;13.60;99.90;;;;;;5030800;28;20189;-76
2021/10/05 06:15:15;;;;;;;3.10;1.80;;;13.70;99.90;;;;;;5016742;28;20256;-76
2021/10/05 06:17:42;;;;;;;3.38;2.38;;;13.60;99.90;;;;;;5017525;28;20604;-76
2021/10/05 06:20:13;;;;;;;3.88;2.50;;;13.70;99.90;;;;;;5040758;28;20271;-75
2021/10/05 06:22:42;;;;;;;2.50;2.30;;;13.70;99.90;;;;;;5067735;28;20291;-76
2021/10/05 06:25:12;;;;;;;3.45;3.13;;;13.70;99.90;;;;;;5066794;28;20612;-76
2021/10/05 06:27:38;;;;;;;4.93;2.50;;;13.70;99.90;;;;;;5074324;28;20273;-76
2021/10/05 06:30:06;;;;;;;5.23;2.03;;;13.80;99.90;;;;;;5053923;28;20329;-77
2021/10/05 06:32:32;;;;;;;3.50;2.92;;;13.80;99.90;;;;;;5054458;28;20571;-76
2021/10/05 06:34:58;;;;;;;3.97;2.40;;;13.90;99.90;;;;;;5053980;28;20168;-76
2021/10/05 06:37:24;;;;;;;5.95;3.00;;;13.90;99.90;;;;;;5062685;28;20192;-76
2021/10/05 06:39:50;;;;;;;2.60;2.40;;;14.00;99.90;;;;;;5040671;28;20177;-76
2021/10/05 06:42:16;;;;;;;3.73;3.00;;;14.00;99.90;;;;;;5034910;28;20170;-77
2021/10/05 06:44:42;;;;;;;4.53;2.70;;;14.10;99.90;;;;;;5034233;28;20579;-77
2021/10/05 06:47:08;;;;;;;2.87;2.67;;;14.10;99.90;;;;;;5033588;28;20201;-76
2021/10/05 06:49:33;;;;;;;7.30;2.70;;;14.10;99.90;;;;;;5034058;28;20619;-76
2021/10/05 06:52:01;;;;;;;3.20;2.53;;;14.10;99.90;;;;;;5032370;28;20667;-76
2021/10/05 06:54:27;;;;;;;3.37;3.07;;;14.10;99.90;;;;;;5034516;28;20161;-77
2021/10/05 06:56:53;;;;;;;5.43;3.50;;;14.20;99.90;;;;;;5034372;28;20661;-77
2021/10/05 06:59:19;;;;;;;3.73;2.67;;;14.20;99.90;;;;;;5036932;28;20954;-76
2021/10/05 07:01:44;;;;;;;2.83;2.63;;;14.30;99.90;;;;;;5034274;28;20188;-76
2021/10/05 07:04:10;;;;;;;4.90;3.43;;;14.30;99.90;;;;;;5034665;28;20569;-76
2021/10/05 07:06:37;;;;;;;3.37;2.60;;;14.30;99.90;;;;;;5035040;28;20193;-76
2021/10/05 07:09:06;;;;;;;3.97;2.40;;;14.30;99.90;;;;;;5033504;28;20251;-74
2021/10/05 07:11:34;;;;;;;2.67;2.23;;;14.40;99.90;;;;;;5032905;28;20637;-76
2021/10/05 07:14:00;;;;;;;4.97;2.90;;;14.40;99.90;;;;;;5032921;28;21181;-74
2021/10/05 07:16:27;;;;;;;2.30;2.10;;;14.50;99.90;;;;;;5032532;28;20569;-74
2021/10/05 07:18:53;;;;;;;4.30;2.70;;;14.60;99.90;;;;;;5033608;28;20925;-74
2021/10/05 07:21:20;;;;;;;4.73;2.60;;;14.70;99.90;;;;;;5033498;28;20699;-74
2021/10/05 07:23:46;;;;;;;3.33;2.00;;;14.70;99.90;;;;;;5032997;28;20509;-74
2021/10/05 07:26:12;;;;;;;2.37;1.80;;;14.80;99.90;;;;;;5033644;28;20573;-74
2021/10/05 07:28:37;;;;;;;3.47;2.60;;;14.90;99.90;;;;;;5033690;28;20677;-74
2021/10/05 07:31:03;;;;;;;2.17;1.87;;;15.00;99.90;;;;;;5033273;28;20619;-74
2021/10/05 07:33:29;;;;;;;1.70;1.53;;;15.10;99.90;;;;;;5033674;28;20165;-74
2021/10/05 07:35:55;;;;;;;3.03;1.83;;;15.20;99.90;;;;;;5034620;28;20174;-74
2021/10/05 07:38:21;;;;;;;2.00;1.40;;;15.30;99.90;;;;;;5032061;28;20189;-75
2021/10/05 07:40:48;;;;;;;2.47;1.60;;;15.50;99.90;;;;;;5031689;28;20571;-74
2021/10/05 07:43:13;;;;;;;2.43;1.27;;;15.60;99.90;;;;;;5033485;28;20626;-74
2021/10/05 07:45:40;;;;;;;2.97;1.83;;;15.80;99.90;;;;;;5032999;28;20917;-75
2021/10/05 07:48:06;;;;;;;2.40;1.67;;;16.00;99.90;;;;;;5054504;28;20985;-74
2021/10/05 07:50:34;;;;;;;1.93;1.60;;;16.30;99.90;;;;;;5064689;28;20630;-74
2021/10/05 07:53:00;;;;;;;2.90;1.67;;;16.80;99.90;;;;;;5073119;28;20559;-74
2021/10/05 07:55:31;;;;;;;2.10;1.30;;;17.50;99.90;;;;;;5055046;28;20575;-75
2021/10/05 07:57:58;;;;;;;3.03;1.33;;;18.40;99.90;;;;;;5053350;28;20626;-74
2021/10/05 08:00:24;;;;;;;2.07;1.00;;;19.50;99.90;;;;;;5052827;28;21057;-74
2021/10/05 08:02:50;;;;;;;2.13;1.43;;;20.40;99.90;;;;;;5052574;28;20583;-74
2021/10/05 08:05:16;;;;;;;2.00;1.10;;;21.10;99.90;;;;;;5051309;28;20571;-74
2021/10/05 08:07:44;;;;;;;1.40;0.80;;;21.60;99.90;;;;;;5052521;28;20794;-76
2021/10/05 08:10:10;;;;;;;1.93;1.10;;;22.20;99.90;;;;;;5052105;28;20551;-76
2021/10/05 08:12:36;;;;;;;4.80;1.23;;;22.70;99.90;;;;;;5053479;28;20669;-76
2021/10/05 08:15:03;;;;;;;2.37;1.00;;;23.00;99.90;;;;;;5052991;28;20591;-77
2021/10/05 08:17:29;;;;;;;3.70;0.93;;;23.40;99.90;;;;;;5052696;28;20592;-76
2021/10/05 08:19:55;;;;;;;2.23;1.07;;;23.60;99.90;;;;;;5052201;28;20582;-76
2021/10/05 08:22:21;;;;;;;1.70;0.80;;;23.80;99.90;;;;;;5051739;28;20177;-76
2021/10/05 08:24:46;;;;;;;1.40;0.73;;;24.10;99.90;;;;;;5052465;28;20169;-76
2021/10/05 08:27:12;;;;;;;1.37;0.80;;;24.40;99.90;;;;;;5052512;28;20189;-76
2021/10/05 08:29:40;;;;;;;2.27;1.10;;;24.70;99.90;;;;;;5052245;28;20217;-76
2021/10/05 08:32:07;;;;;;;1.53;0.60;;;25.10;99.90;;;;;;5051226;28;20564;-76
2021/10/05 08:34:34;;;;;;;1.10;0.60;;;25.40;99.90;;;;;;5052617;28;20583;-76
2021/10/05 08:37:01;;;;;;;2.53;0.60;;;25.30;99.60;;;;;;5050186;28;20993;-76
2021/10/05 08:39:27;;;;;;;1.87;0.60;;;25.10;99.90;;;;;;5050784;28;21182;-76
2021/10/05 08:41:53;;;;;;;1.50;0.60;;;25.20;99.90;;;;;;5052095;28;20575;-76
2021/10/05 08:44:22;;;;;;;1.17;0.57;;;25.10;99.20;;;;;;5052794;28;20177;-76
2021/10/05 08:46:48;;;;;;;1.30;0.63;;;25.30;98.10;;;;;;5052148;28;20239;-75
2021/10/05 08:49:14;;;;;;;1.60;0.70;;;25.30;99.30;;;;;;5054747;28;20627;-76
2021/10/05 08:51:40;;;;;;;3.17;0.63;;;25.30;96.50;;;;;;5058496;28;20983;-76
2021/10/05 08:54:09;;;;;;;1.60;0.70;;;25.20;96.90;;;;;;5061573;28;20176;-76
2021/10/05 08:56:35;;;;;;;2.23;0.70;;;25.10;95.80;;;;;;5059604;28;20680;-77
2021/10/05 08:59:01;;;;;;;1.40;0.63;;;25.10;96.80;;;;;;5078848;22;20674;-76
2021/10/05 09:01:32;;;;;;;1.33;0.60;;;25.00;95.60;;;;;;5057431;28;20181;-76
2021/10/05 09:03:59;;;;;;;1.50;0.60;;;25.00;96.20;;;;;;5050585;28;20633;-76
2021/10/05 09:06:25;;;;;;;3.30;0.90;;;24.90;95.90;;;;;;5051867;28;20579;-76
2021/10/05 09:08:55;;;;;;;1.07;0.57;;;24.90;96.70;;;;;;5036848;28;20628;-75
2021/10/05 09:11:24;;;;;;;1.20;0.60;;;25.00;96.70;;;;;;5031573;28;20508;-75
2021/10/05 09:13:53;;;;;;;3.73;0.70;;;24.90;96.20;;;;;;5053154;28;20630;-75
2021/10/05 09:16:30;;;;;;;1.30;0.50;;;24.80;94.70;;;;;;5053126;28;20568;-76
2021/10/05 09:18:59;;;;;;;1.63;0.60;;;24.80;95.00;;;;;;5051254;28;21007;-76
2021/10/05 09:21:31;;;;;;;2.40;0.60;;;24.80;95.10;;;;;;5051210;28;20718;-75
2021/10/05 09:24:01;;;;;;;2.17;0.50;;;24.90;92.40;;;;;;5051270;28;20634;-75
2021/10/05 09:26:38;;;;;;;2.37;0.60;;;25.10;94.70;;;;;;5051480;28;20580;-77
2021/10/05 09:29:18;;;;;;;1.33;0.70;;;25.50;92.70;;;;;;5051368;28;20628;-77
2021/10/05 09:32:02;;;;;;;1.33;0.50;;;25.90;91.50;;;;;;5050979;28;20584;-75
2021/10/05 09:34:51;;;;;;;5.37;0.63;;;26.30;93.80;;;;;;5033331;28;21005;-76
2021/10/05 09:37:19;;;;;;;1.50;0.67;;;26.90;94.20;;;;;;5033286;28;20575;-76
2021/10/05 09:39:54;;;;;;;3.10;0.60;;;27.30;93.50;;;;;;5049762;28;20980;-75
2021/10/05 09:42:24;;;;;;;2.40;0.60;;;27.40;92.30;;;;;;5051431;28;20580;-76
2021/10/05 09:44:58;;;;;;;1.97;0.60;;;27.20;89.80;;;;;;5051161;28;20562;-76
2021/10/05 09:47:40;;;;;;;1.57;0.70;;;26.90;90.10;;;;;;5035395;28;20602;-76
2021/10/05 09:50:26;;;;;;;1.10;0.40;;;27.10;90.30;;;;;;5053910;28;20680;-76
2021/10/05 09:53:00;;;;;;;1.30;0.50;;;27.30;84.60;;;;;;5054932;28;20583;-75
2021/10/05 09:55:31;;;;;;;2.10;0.43;;;27.20;87.50;;;;;;5055103;28;20668;-76
2021/10/05 09:57:57;;;;;;;1.93;0.50;;;26.90;84.70;;;;;;5055225;28;20617;-76
2021/10/05 10:00:27;;;;;;;2.70;0.60;;;26.70;82.50;;;;;;5054976;28;20561;-75
2021/10/05 10:02:53;;;;;;;1.60;0.70;;;26.70;84.10;;;;;;5054817;28;20586;-75
2021/10/05 10:05:23;;;;;;;1.47;0.73;;;26.70;83.50;;;;;;5055255;28;20972;-76
2021/10/05 10:07:52;;;;;;;2.27;0.70;;;26.70;84.40;;;;;;5054657;28;20618;-76
2021/10/05 10:10:21;;;;;;;1.40;0.53;;;26.80;84.40;;;;;;5054503;28;20661;-76
2021/10/05 10:12:53;;;;;;;2.07;0.60;;;26.90;84.40;;;;;;5054855;28;20587;-76
2021/10/05 10:15:22;;;;;;;1.20;0.47;;;27.00;83.60;;;;;;5055202;28;20563;-76
2021/10/05 10:17:49;;;;;;;1.20;0.50;;;27.00;84.10;;;;;;5054507;28;20604;-75
2021/10/05 10:20:27;;;;;;;3.17;0.63;;;27.10;84.30;;;;;;5053173;28;20583;-75
2021/10/05 10:22:54;;;;;;;1.53;0.67;;;27.40;83.50;;;;;;5054440;28;20590;-77
2021/10/05 10:25:33;;;;;;;1.60;0.90;;;27.60;85.00;;;;;;5054804;28;20567;-76
2021/10/05 10:28:13;;;;;;;1.70;0.70;;;28.00;81.70;;;;;;5054931;28;20702;-76
2021/10/05 10:30:55;;;;;;;3.53;1.10;;;27.80;72.10;;;;;;5054146;28;20610;-76
2021/10/05 10:33:22;;;;;;;1.80;0.93;;;27.60;74.70;;;;;;5053297;28;20683;-76
2021/10/05 10:35:53;;;;;;;2.70;0.80;;;27.20;74.20;;;;;;5054054;28;20987;-76
2021/10/05 10:38:30;;;;;;;1.67;0.77;;;27.00;72.10;;;;;;5054703;28;20596;-76
2021/10/05 10:40:57;;;;;;;1.50;0.60;;;26.50;69.00;;;;;;5053935;28;20562;-76
2021/10/05 10:43:27;;;;;;;1.70;0.60;;;26.10;69.90;;;;;;5054445;28;20571;-76
2021/10/05 10:46:02;;;;;;;1.83;0.80;;;25.90;71.90;;;;;;5054238;28;20552;-76
2021/10/05 10:48:36;;;;;;;1.50;0.60;;;25.80;73.90;;;;;;5054325;28;20998;-77
2021/10/05 10:51:27;;;;;;;1.77;0.60;;;25.80;73.70;;;;;;5053747;28;20615;-76
2021/10/05 10:53:58;;;;;;;3.07;0.70;;;25.90;73.80;;;;;;5054557;28;20563;-76
2021/10/05 10:56:28;;;;;;;1.47;0.50;;;25.80;73.40;;;;;;5054617;28;20567;-76
2021/10/05 10:58:59;;;;;;;3.63;1.37;;;25.60;73.40;;;;;;5053503;28;20624;-76
2021/10/05 11:01:45;;;;;;;2.37;1.00;;;25.60;70.50;;;;;;5053940;28;20575;-76
2021/10/05 11:04:14;;;;;;;2.10;0.77;;;25.40;68.90;;;;;;5057093;28;20602;-76
2021/10/05 11:06:44;;;;;;;2.20;0.80;;;25.20;71.30;;;;;;5054790;28;20555;-76
2021/10/05 11:09:10;;;;;;;1.40;0.63;;;25.30;73.60;;;;;;5052717;28;20730;-76
2021/10/05 11:11:40;;;;;;;1.50;0.70;;;25.30;72.60;;;;;;5052477;28;20961;-76
2021/10/05 11:14:09;;;;;;;1.70;0.67;;;25.20;74.30;;;;;;5052588;28;20567;-76
2021/10/05 11:16:37;;;;;;;1.30;0.77;;;25.40;75.80;;;;;;5041429;28;20590;-76
2021/10/05 11:19:10;;;;;;;1.87;0.70;;;25.70;77.00;;;;;;5032932;28;20659;-76
2021/10/05 11:21:41;;;;;;;1.20;0.60;;;25.80;77.20;;;;;;5033348;28;20828;-77
2021/10/05 11:24:08;;;;;;;2.40;0.60;;;26.10;76.40;;;;;;5033902;28;20578;-77
2021/10/05 11:26:39;;;;;;;1.50;0.57;;;26.00;74.40;;;;;;5033949;28;20612;-77
2021/10/05 11:29:06;;;;;;;4.03;0.70;;;25.90;73.20;;;;;;5033550;28;20632;-77
2021/10/05 11:31:50;;;;;;;1.73;0.60;;;25.70;73.30;;;;;;5033101;28;20579;-76
2021/10/05 11:34:18;;;;;;;2.40;1.30;;;25.60;74.00;;;;;;5033350;28;20557;-77
2021/10/05 11:36:45;;;;;;;3.10;1.30;;;25.60;74.10;;;;;;5033206;28;20568;-77
2021/10/05 11:39:19;;;;;;;2.97;0.90;;;25.40;73.60;;;;;;5033330;28;20621;-77
2021/10/05 11:41:45;;;;;;;2.23;1.00;;;25.20;72.90;;;;;;5034057;28;20585;-77
2021/10/05 11:44:15;;;;;;;1.60;0.70;;;25.00;74.20;;;;;;5032236;28;20568;-77
2021/10/05 11:47:01;;;;;;;2.70;1.53;;;24.90;73.80;;;;;;5033184;28;21146;-76
2021/10/05 11:49:38;;;;;;;3.33;1.40;;;24.50;73.30;;;;;;5033162;28;20639;-77
2021/10/05 11:52:10;;;;;;;2.53;1.03;;;24.30;73.90;;;;;;5031522;28;20568;-76
2021/10/05 11:54:36;;;;;;;1.50;0.60;;;24.10;73.80;;;;;;5033473;28;20638;-76
2021/10/05 11:57:10;;;;;;;2.37;0.70;;;23.90;73.40;;;;;;5033007;28;20591;-75
2021/10/05 11:59:36;;;;;;;3.07;0.80;;;23.70;73.10;;;;;;5042940;28;20639;-76
2021/10/05 12:02:08;;;;;;;1.40;0.60;;;23.40;73.10;;;;;;5050013;28;20592;-75
2021/10/05 12:04:35;;;;;;;2.70;0.80;;;23.10;73.80;;;;;;5051989;28;20184;-75
2021/10/05 12:07:21;;;;;;;1.50;0.70;;;22.90;74.20;;;;;;5066427;28;20584;-76
2021/10/05 12:10:08;;;;;;;2.70;0.80;;;22.80;74.60;;;;;;5043805;28;20666;-75
2021/10/05 12:12:40;;;;;;;1.77;0.90;;;22.50;75.00;;;;;;5047029;28;20649;-76
2021/10/05 12:15:24;;;;;;;1.50;0.80;;;22.30;75.60;;;;;;5044394;28;20572;-76
2021/10/05 12:18:19;;;;;;;3.53;0.70;;;22.20;76.90;;;;;;5051833;28;20619;-76
2021/10/05 12:21:06;;;;;;;1.87;0.87;;;22.10;77.20;;;;;;5028815;28;20971;-76
2021/10/05 12:23:32;;;;;;;1.70;0.63;;;22.10;78.80;;;;;;5042112;28;20596;-76
2021/10/05 12:26:12;;;;;;;3.40;0.70;;;22.30;80.70;;;;;;5048848;28;21129;-76
2021/10/05 12:28:38;;;;;;;2.23;0.70;;;22.50;81.50;;;;;;5051555;28;20196;-77
2021/10/05 12:31:15;;;;;;;2.00;0.80;;;22.70;81.60;;;;;;5043563;28;20630;-77
2021/10/05 12:33:51;;;;;;;1.83;0.80;;;22.80;80.90;;;;;;5051909;28;20611;-77
2021/10/05 12:36:20;;;;;;;2.27;0.77;;;22.80;79.90;;;;;;5042839;28;20579;-76
2021/10/05 12:38:46;;;;;;;3.47;0.73;;;22.80;79.90;;;;;;5050969;28;20595;-77
2021/10/05 12:41:11;;;;;;;1.63;0.67;;;22.80;79.70;;;;;;5051577;28;20569;-76
2021/10/05 12:43:39;;;;;;;2.70;0.60;;;22.90;80.00;;;;;;5052427;28;20188;-77
2021/10/05 12:46:08;;;;;;;1.57;0.77;;;22.90;79.50;;;;;;5051711;28;20256;-77
2021/10/05 12:48:43;;;;;;;1.63;0.70;;;22.80;79.30;;;;;;5031795;28;20596;-77
2021/10/05 12:51:17;;;;;;;2.40;0.50;;;22.80;79.70;;;;;;5034205;28;20702;-76
2021/10/05 12:53:46;;;;;;;1.97;0.60;;;22.80;79.60;;;;;;5042381;28;20597;-76
2021/10/05 12:56:12;;;;;;;1.73;0.50;;;22.80;79.80;;;;;;5048989;28;21139;-75